Time;durP1;ratioP1;P1;durP2;ratioP2;P2;SDS_P1;SDS_P2;PMS_P1;PMS_P2;Temp;Humidity;BMP_temperature;BMP_pressure;BME280_temperature;BME280_humidity;BME280_pressure;Samples;Min_cycle;Max_cycle;Signal;HPM_P1;HPM_P2
2020/12/20 00:00:30;;;;;;;10.67;7.47;;;;;;;5.98;82.81;101360.38;5074861;28;20036;-68
2020/12/20 00:02:56;;;;;;;12.60;7.60;;;;;;;5.93;83.34;101366.00;5074564;28;20036;-68
2020/12/20 00:05:23;;;;;;;11.52;7.18;;;;;;;5.88;83.19;101369.00;5073696;28;20120;-68
2020/12/20 00:07:50;;;;;;;11.38;7.78;;;;;;;5.76;83.38;101363.78;5074286;28;20173;-68
2020/12/20 00:10:16;;;;;;;14.52;7.85;;;;;;;5.74;83.60;101363.09;5073718;28;20470;-68
2020/12/20 00:12:42;;;;;;;10.65;7.10;;;;;;;5.72;83.94;101365.84;5073682;28;20068;-68
2020/12/20 00:15:08;;;;;;;14.68;8.45;;;;;;;5.72;83.89;101363.19;5073677;28;20060;-68
2020/12/20 00:17:34;;;;;;;12.38;8.00;;;;;;;5.68;83.96;101367.03;5074200;28;20064;-68
2020/12/20 00:20:00;;;;;;;14.15;8.75;;;;;;;5.60;84.04;101364.13;5074422;28;20040;-68
2020/12/20 00:22:25;;;;;;;13.20;7.95;;;;;;;5.52;84.43;101359.38;5074302;28;20038;-68
2020/12/20 00:24:51;;;;;;;12.90;8.67;;;;;;;5.48;84.54;101366.72;5074330;28;20102;-68
2020/12/20 00:27:16;;;;;;;14.40;8.40;;;;;;;5.43;84.78;101360.06;5072947;28;20046;-68
2020/12/20 00:29:42;;;;;;;13.47;8.47;;;;;;;5.35;84.73;101367.75;5074248;28;20086;-68
2020/12/20 00:32:12;;;;;;;15.45;9.95;;;;;;;5.23;85.46;101353.59;5073273;28;20441;-68
2020/12/20 00:34:38;;;;;;;15.25;10.07;;;;;;;5.13;85.70;101355.22;5072367;28;20086;-68
2020/12/20 00:37:05;;;;;;;16.00;10.32;;;;;;;5.02;85.83;101361.31;5072114;28;20507;-68
2020/12/20 00:39:31;;;;;;;20.98;12.43;;;;;;;4.98;86.08;101354.53;5072440;28;20413;-68
2020/12/20 00:41:59;;;;;;;19.00;11.63;;;;;;;4.90;86.39;101359.56;5071502;28;20112;-68
2020/12/20 00:44:25;;;;;;;36.70;17.48;;;;;;;4.90;86.51;101364.84;5072360;28;20025;-68
2020/12/20 00:46:52;;;;;;;27.27;15.07;;;;;;;4.95;86.45;101368.84;5072471;28;20106;-68
2020/12/20 00:49:18;;;;;;;45.05;19.33;;;;;;;4.95;86.17;101368.00;5056280;28;20064;-68
2020/12/20 00:51:43;;;;;;;13.53;8.03;;;;;;;4.94;86.28;101359.22;5056196;28;20064;-68
2020/12/20 00:54:09;;;;;;;13.10;9.50;;;;;;;4.91;86.22;101361.25;5072980;28;20086;-68
2020/12/20 00:56:35;;;;;;;16.67;9.40;;;;;;;4.87;86.36;101363.28;5072592;28;20039;-68
2020/12/20 00:59:00;;;;;;;17.15;9.85;;;;;;;4.83;86.53;101367.09;5073619;28;20347;-68
2020/12/20 01:01:26;;;;;;;14.03;9.30;;;;;;;4.86;86.48;101369.50;5072738;28;20436;-68
2020/12/20 01:03:52;;;;;;;15.05;9.23;;;;;;;4.89;86.21;101384.31;5072515;28;20086;-68
2020/12/20 01:06:18;;;;;;;14.30;9.13;;;;;;;4.86;86.40;101380.09;5073120;28;20355;-68
2020/12/20 01:08:46;;;;;;;15.48;9.50;;;;;;;4.94;86.36;101376.88;5071853;28;20048;-68
2020/12/20 01:11:13;;;;;;;12.88;9.38;;;;;;;4.91;86.29;101387.69;5072579;28;20047;-68
2020/12/20 01:13:44;;;;;;;16.77;9.25;;;;;;;4.93;86.27;101391.09;5072439;28;20044;-68
2020/12/20 01:16:20;;;;;;;18.52;10.85;;;;;;;4.90;86.32;101386.03;5072210;28;20086;-68
2020/12/20 01:18:46;;;;;;;16.20;10.23;;;;;;;4.88;86.19;101396.69;5072290;28;20039;-68
2020/12/20 01:21:13;;;;;;;27.17;14.77;;;;;;;4.92;86.18;101384.97;5072404;28;20037;-68
2020/12/20 01:23:39;;;;;;;18.73;11.68;;;;;;;4.89;86.00;101384.31;5055710;28;20027;-68
2020/12/20 01:26:04;;;;;;;16.67;9.27;;;;;;;4.84;86.00;101382.84;5072014;28;20152;-68
2020/12/20 01:28:30;;;;;;;11.50;7.97;;;;;;;4.83;86.16;101397.03;5072190;28;20286;-68
2020/12/20 01:30:56;;;;;;;16.75;8.18;;;;;;;4.85;86.19;101392.47;5072152;28;20047;-68
2020/12/20 01:33:40;;;;;;;13.75;9.35;;;;;;;4.82;86.09;101399.78;5071980;28;20462;-68
2020/12/20 01:36:12;;;;;;;13.00;8.43;;;;;;;4.85;86.17;101394.28;5071800;28;20063;-68
2020/12/20 01:38:39;;;;;;;16.75;8.23;;;;;;;4.81;85.97;101404.22;5072016;28;20028;-68
2020/12/20 01:41:05;;;;;;;19.20;9.75;;;;;;;4.79;86.22;101403.50;5055350;28;20067;-68
2020/12/20 01:43:42;;;;;;;13.30;8.65;;;;;;;4.88;86.00;101404.63;5071921;28;20420;-68
2020/12/20 01:46:10;;;;;;;16.17;7.53;;;;;;;4.90;86.05;101402.75;5071515;28;20066;-68
2020/12/20 01:48:37;;;;;;;17.52;8.82;;;;;;;4.88;86.02;101404.63;5071798;28;20037;-68
2020/12/20 01:51:02;;;;;;;;;;;;;;;4.89;85.94;101413.41;5072286;28;20029;-68
2020/12/20 01:53:28;;;;;;;;;;;;;;;4.89;85.93;101410.78;5055582;28;19912;-68
2020/12/20 01:56:00;;;;;;;13.52;8.70;;;;;;;4.83;85.94;101397.03;5054990;28;19920;-68
2020/12/20 01:58:27;;;;;;;14.10;7.90;;;;;;;4.83;85.96;101414.72;5071579;28;20028;-68
2020/12/20 02:01:06;;;;;;;13.57;8.07;;;;;;;4.85;85.86;101408.34;5056494;28;20024;-68
2020/12/20 02:03:45;;;;;;;14.15;8.55;;;;;;;4.92;86.08;101405.28;5072302;28;20078;-68
2020/12/20 02:06:19;;;;;;;12.43;8.02;;;;;;;4.94;85.52;101406.88;5055732;28;20730;-68
2020/12/20 02:08:53;;;;;;;13.65;8.65;;;;;;;4.86;85.95;101404.75;5071381;28;20036;-68
2020/12/20 02:11:19;;;;;;;12.63;8.47;;;;;;;4.84;85.82;101403.16;5071466;28;20036;-68
2020/12/20 02:13:51;;;;;;;11.80;8.10;;;;;;;4.85;85.88;101397.78;5071353;28;20024;-68
2020/12/20 02:16:20;;;;;;;14.43;7.90;;;;;;;4.86;85.47;101399.44;5071930;28;20408;-68
2020/12/20 02:18:46;;;;;;;13.20;8.15;;;;;;;4.77;85.68;101393.97;5071175;28;20036;-68
2020/12/20 02:21:14;;;;;;;12.95;8.23;;;;;;;4.75;86.00;101390.59;5070983;28;20038;-68
2020/12/20 02:23:42;;;;;;;15.52;8.13;;;;;;;4.69;86.19;101396.34;5071055;28;20054;-68
2020/12/20 02:26:11;;;;;;;13.93;8.65;;;;;;;4.69;86.21;101391.03;5070842;28;20048;-68
2020/12/20 02:28:37;;;;;;;15.15;8.93;;;;;;;4.65;86.29;101403.63;5054525;28;20064;-68
2020/12/20 02:31:18;;;;;;;17.17;7.93;;;;;;;4.70;86.17;101392.72;5071018;28;20039;-68
2020/12/20 02:33:43;;;;;;;11.82;8.02;;;;;;;4.75;86.06;101398.53;5070846;28;20068;-68
2020/12/20 02:36:10;;;;;;;11.50;7.43;;;;;;;4.71;86.30;101405.84;5054100;28;20063;-68
2020/12/20 02:38:37;;;;;;;14.50;9.20;;;;;;;4.66;86.15;101394.75;5054486;28;20045;-68
2020/12/20 02:41:25;;;;;;;12.40;8.18;;;;;;;4.71;86.36;101405.84;5068740;28;20040;-68
2020/12/20 02:43:51;;;;;;;13.90;8.60;;;;;;;4.73;85.98;101405.72;5070826;28;20032;-68
2020/12/20 02:46:20;;;;;;;16.65;8.93;;;;;;;4.65;86.15;101399.16;5070289;28;20028;-68
2020/12/20 02:48:50;;;;;;;14.23;8.77;;;;;;;4.71;86.36;101400.56;5070763;28;20047;-68
2020/12/20 02:51:17;;;;;;;16.97;7.50;;;;;;;4.68;86.18;101405.19;5070814;28;20036;-68
2020/12/20 02:53:44;;;;;;;13.38;8.40;;;;;;;4.67;86.35;101396.44;5070668;28;20123;-68
2020/12/20 02:56:13;;;;;;;15.05;8.20;;;;;;;4.63;86.16;101410.81;5070404;28;20525;-68
2020/12/20 02:58:39;;;;;;;13.45;8.07;;;;;;;4.59;86.48;101404.91;5070381;28;20587;-68
2020/12/20 03:01:11;;;;;;;10.90;7.55;;;;;;;4.59;86.31;101401.44;5070597;28;20082;-68
2020/12/20 03:03:36;;;;;;;11.70;8.07;;;;;;;4.62;86.43;101393.28;5070447;28;20028;-68
2020/12/20 03:06:02;;;;;;;13.50;7.37;;;;;;;4.67;86.28;101391.13;5053646;28;20040;-68
2020/12/20 03:08:27;;;;;;;12.97;8.77;;;;;;;4.64;86.43;101392.19;5070387;28;20063;-68
2020/12/20 03:10:53;;;;;;;14.10;7.50;;;;;;;4.58;86.37;101394.44;5070507;28;20033;-68
2020/12/20 03:13:19;;;;;;;11.75;7.38;;;;;;;4.50;86.68;101394.97;5071257;28;20446;-68
2020/12/20 03:15:50;;;;;;;13.77;8.35;;;;;;;4.43;86.73;101389.25;5070058;28;20051;-68
2020/12/20 03:18:18;;;;;;;11.02;7.63;;;;;;;4.49;86.60;101393.28;5070258;28;20101;-68
2020/12/20 03:20:44;;;;;;;12.70;7.97;;;;;;;4.61;86.57;101405.66;5070378;28;20044;-68
2020/12/20 03:23:09;;;;;;;13.33;7.70;;;;;;;4.60;86.32;101403.09;5070364;28;20040;-68
2020/12/20 03:25:44;;;;;;;12.88;8.25;;;;;;;4.56;86.52;101409.56;5069927;28;20029;-68
2020/12/20 03:28:16;;;;;;;12.40;8.07;;;;;;;4.58;86.45;101416.44;5054437;28;20033;-68
2020/12/20 03:31:01;;;;;;;10.55;7.03;;;;;;;4.56;86.23;101414.84;5071199;28;20055;-68
2020/12/20 03:33:46;;;;;;;11.48;7.60;;;;;;;4.57;86.36;101401.53;5069984;28;20036;-68
2020/12/20 03:36:31;;;;;;;14.57;8.23;;;;;;;4.47;86.29;101411.03;5070009;28;20162;-68
2020/12/20 03:38:56;;;;;;;13.23;8.77;;;;;;;4.37;86.70;101407.34;5070185;28;20529;-68
2020/12/20 03:41:22;;;;;;;12.73;7.65;;;;;;;4.34;86.77;101411.06;5070168;28;20039;-68
2020/12/20 03:43:49;;;;;;;11.13;8.07;;;;;;;4.29;86.83;101404.41;5070053;28;20051;-68
2020/12/20 03:46:15;;;;;;;11.40;7.45;;;;;;;4.29;86.95;101396.47;5053068;28;20056;-68
2020/12/20 03:48:45;;;;;;;12.85;7.95;;;;;;;4.23;86.91;101393.28;5069925;28;20036;-68
2020/12/20 03:51:10;;;;;;;14.33;8.33;;;;;;;4.19;86.91;101397.09;5070392;28;20047;-68
2020/12/20 03:53:39;;;;;;;12.68;8.55;;;;;;;4.17;87.29;101399.00;5069900;28;20040;-68
2020/12/20 03:56:09;;;;;;;13.02;8.60;;;;;;;4.26;87.39;101399.31;5069749;28;20029;-68
2020/12/20 03:58:40;;;;;;;12.85;7.95;;;;;;;4.28;87.11;101406.19;5069992;28;20392;-68
2020/12/20 04:01:06;;;;;;;12.80;8.55;;;;;;;4.39;86.89;101403.66;5069912;28;20038;-68
2020/12/20 04:03:33;;;;;;;13.32;8.05;;;;;;;4.44;86.88;101405.97;5069745;28;20039;-68
2020/12/20 04:05:59;;;;;;;14.55;7.93;;;;;;;4.46;86.85;101417.28;5053087;28;20040;-68
2020/12/20 04:08:25;;;;;;;13.18;7.78;;;;;;;4.49;86.79;101401.19;5069792;28;20040;-68
2020/12/20 04:11:05;;;;;;;11.32;7.22;;;;;;;4.48;86.53;101396.88;5069922;28;20040;-68
2020/12/20 04:13:32;;;;;;;12.57;7.63;;;;;;;4.53;86.48;101389.47;5069868;28;20042;-68
2020/12/20 04:16:03;;;;;;;12.15;7.07;;;;;;;4.52;86.51;101397.50;5069311;28;20032;-68
2020/12/20 04:18:29;;;;;;;10.30;7.20;;;;;;;4.52;86.18;101393.06;5069708;28;20068;-68
2020/12/20 04:20:54;;;;;;;16.33;8.80;;;;;;;4.56;86.27;101391.03;5069826;28;20170;-68
2020/12/20 04:23:19;;;;;;;12.17;8.47;;;;;;;4.65;86.10;101395.69;5053021;28;20051;-68
2020/12/20 04:25:51;;;;;;;13.77;8.43;;;;;;;4.65;85.95;101412.41;5069589;28;20091;-68
2020/12/20 04:28:23;;;;;;;10.40;6.90;;;;;;;4.64;86.02;101408.06;5053831;28;20033;-68
2020/12/20 04:30:54;;;;;;;9.85;6.55;;;;;;;4.70;85.81;101413.88;5069627;28;20380;-68
2020/12/20 04:33:25;;;;;;;12.13;8.40;;;;;;;4.71;85.79;101405.84;5069743;28;20040;-68
2020/12/20 04:35:53;;;;;;;12.43;7.15;;;;;;;4.69;85.86;101409.56;5069431;28;20033;-68
2020/12/20 04:38:18;;;;;;;11.77;7.47;;;;;;;4.65;85.84;101404.47;5069704;28;20408;-68
2020/12/20 04:40:45;;;;;;;10.65;6.78;;;;;;;4.66;86.07;101410.63;5069517;28;20024;-68
2020/12/20 04:43:12;;;;;;;14.25;7.13;;;;;;;4.70;85.93;101408.59;5069596;28;20040;-68
2020/12/20 04:45:39;;;;;;;12.52;7.72;;;;;;;4.65;85.82;101399.16;5073213;28;20028;-68
2020/12/20 04:48:11;;;;;;;12.68;6.95;;;;;;;4.66;85.98;101402.69;5073994;28;20040;-68
2020/12/20 04:50:48;;;;;;;13.63;8.52;;;;;;;4.61;86.06;101394.19;5072987;28;20033;-68
2020/12/20 04:53:14;;;;;;;12.88;7.53;;;;;;;4.64;85.96;101402.78;5056290;28;20370;-68
2020/12/20 04:55:52;;;;;;;11.55;7.45;;;;;;;4.65;85.95;101393.03;5072658;28;20036;-68
2020/12/20 04:58:36;;;;;;;12.05;7.13;;;;;;;4.62;85.97;101390.63;5072886;28;20042;-68
2020/12/20 05:01:03;;;;;;;13.18;7.72;;;;;;;4.61;85.95;101386.28;5072831;28;20495;-68
2020/12/20 05:03:29;;;;;;;15.10;8.73;;;;;;;4.67;85.88;101395.59;5072671;28;20033;-68
2020/12/20 05:05:55;;;;;;;13.88;7.30;;;;;;;4.69;85.63;101397.16;5072407;28;20038;-68
2020/12/20 05:08:22;;;;;;;9.32;6.22;;;;;;;4.72;85.83;101398.75;5072577;28;20480;-68
2020/12/20 05:10:50;;;;;;;12.00;7.88;;;;;;;4.67;85.89;101396.44;5056171;28;20025;-68
2020/12/20 05:13:16;;;;;;;9.85;6.50;;;;;;;4.73;85.82;101401.31;5072534;28;20032;-68
2020/12/20 05:15:42;;;;;;;11.70;7.63;;;;;;;4.73;85.51;101409.22;5072343;28;20083;-68
2020/12/20 05:18:23;;;;;;;10.40;6.97;;;;;;;4.76;85.34;101406.38;5072330;28;20451;-68
2020/12/20 05:20:55;;;;;;;12.98;7.03;;;;;;;4.73;85.49;101409.22;5072490;28;20101;-68
2020/12/20 05:23:28;;;;;;;11.35;7.32;;;;;;;4.76;85.50;101408.16;5072390;28;20028;-68
2020/12/20 05:26:05;;;;;;;12.02;7.82;;;;;;;4.82;85.34;101405.94;5072117;28;20044;-68
2020/12/20 05:28:32;;;;;;;11.40;6.70;;;;;;;4.81;85.40;101411.31;5055657;28;20082;-68
2020/12/20 05:31:08;;;;;;;10.80;6.82;;;;;;;4.86;85.24;101401.25;5072177;28;20071;-68
2020/12/20 05:33:52;;;;;;;11.40;7.57;;;;;;;4.77;85.30;101401.91;5071983;28;20115;-68
2020/12/20 05:36:25;;;;;;;9.93;6.90;;;;;;;4.75;85.48;101414.41;5055915;28;20036;-68
2020/12/20 05:39:15;;;;;;;12.48;7.85;;;;;;;4.79;85.66;101410.59;5072109;28;20044;-68
2020/12/20 05:41:44;;;;;;;13.00;7.57;;;;;;;4.79;85.49;101415.88;5072197;28;20106;-68
2020/12/20 05:44:14;;;;;;;12.05;7.25;;;;;;;4.84;85.36;101413.75;5055429;28;20028;-68
2020/12/20 05:46:42;;;;;;;12.88;7.60;;;;;;;4.81;85.42;101419.25;5054992;28;20033;-68
2020/12/20 05:49:15;;;;;;;10.77;7.05;;;;;;;4.85;85.56;101416.28;5071762;28;20124;-68
2020/12/20 05:52:01;;;;;;;12.13;7.47;;;;;;;4.86;85.39;101425.91;5071715;28;20025;-68
2020/12/20 05:54:31;;;;;;;9.77;6.03;;;;;;;4.95;85.16;101420.94;5071372;28;20448;-68
2020/12/20 05:57:17;;;;;;;15.52;6.95;;;;;;;5.00;84.90;101419.63;5072336;28;20102;-68
2020/12/20 05:59:44;;;;;;;11.40;7.18;;;;;;;5.03;84.50;101414.16;5072616;28;20040;-68
2020/12/20 06:02:10;;;;;;;13.40;7.18;;;;;;;4.99;84.75;101417.97;5072459;28;20056;-68
2020/12/20 06:04:36;;;;;;;11.55;7.82;;;;;;;4.99;84.78;101420.59;5071632;28;20047;-68
2020/12/20 06:07:02;;;;;;;;;;;;;;;4.99;84.97;101425.06;5071669;28;20424;-68
2020/12/20 06:09:29;;;;;;;;;;;;;;;4.98;84.83;101410.94;5072904;28;19942;-68
2020/12/20 06:11:59;;;;;;;9.38;5.90;;;;;;;5.01;84.52;101410.75;5054875;28;19916;-68
2020/12/20 06:14:27;;;;;;;10.48;6.57;;;;;;;5.01;84.75;101418.69;5054884;28;20440;-68
2020/12/20 06:17:31;;;;;;;11.35;6.72;;;;;;;4.99;84.65;101423.25;5071136;28;20123;-68
2020/12/20 06:20:03;;;;;;;12.73;6.53;;;;;;;4.95;84.86;101420.94;5062534;28;20127;-68
2020/12/20 06:22:29;;;;;;;10.70;7.75;;;;;;;4.94;85.02;101422.75;5072177;28;20093;-68
2020/12/20 06:24:57;;;;;;;17.80;7.65;;;;;;;4.95;85.09;101432.34;5071974;28;20496;-68
2020/12/20 06:27:25;;;;;;;11.10;7.43;;;;;;;5.07;84.39;101442.06;5070892;28;20036;-68
2020/12/20 06:29:55;;;;;;;13.68;7.43;;;;;;;5.10;84.49;101442.81;5071122;28;20438;-68
2020/12/20 06:32:42;;;;;;;14.27;7.93;;;;;;;5.04;84.42;101447.59;5071933;28;20033;-68
2020/12/20 06:35:26;;;;;;;11.18;7.78;;;;;;;4.99;84.67;101443.59;5070809;28;20079;-68
2020/12/20 06:37:53;;;;;;;11.95;6.57;;;;;;;5.00;84.77;101447.91;5071752;28;20036;-68
2020/12/20 06:40:27;;;;;;;10.45;6.85;;;;;;;4.98;84.76;101439.22;5070797;28;20035;-68
2020/12/20 06:42:52;;;;;;;11.77;8.02;;;;;;;5.00;84.69;101446.09;5070752;28;20037;-68
2020/12/20 06:45:20;;;;;;;10.00;6.67;;;;;;;5.01;84.67;101444.28;5070680;28;20044;-68
2020/12/20 06:47:48;;;;;;;9.85;5.80;;;;;;;5.03;84.52;101442.38;5070303;28;20101;-68
2020/12/20 06:50:14;;;;;;;11.23;6.70;;;;;;;5.03;84.39;101437.97;5071537;28;20355;-68
2020/12/20 06:52:47;;;;;;;9.57;6.10;;;;;;;5.04;84.40;101437.00;5054009;28;20051;-68
2020/12/20 06:55:14;;;;;;;10.43;6.40;;;;;;;5.10;84.04;101448.09;5071404;28;20082;-68
2020/12/20 06:58:12;;;;;;;10.13;6.60;;;;;;;5.04;84.44;101433.50;5071228;28;20068;-68
2020/12/20 07:00:41;;;;;;;10.80;6.65;;;;;;;5.03;84.35;101432.66;5071377;28;20434;-68
2020/12/20 07:03:31;;;;;;;14.38;7.22;;;;;;;5.03;84.32;101427.38;5070245;28;20052;-68
2020/12/20 07:06:10;;;;;;;11.25;6.93;;;;;;;5.04;84.36;101430.88;5070691;28;20129;-68
2020/12/20 07:08:35;;;;;;;12.10;7.13;;;;;;;5.08;84.21;101438.47;5069908;28;20043;-68
2020/12/20 07:11:16;;;;;;;10.07;7.00;;;;;;;5.12;83.95;101435.59;5071197;28;20033;-68
2020/12/20 07:13:43;;;;;;;9.88;6.95;;;;;;;5.12;83.88;101433.78;5070412;28;20036;-68
2020/12/20 07:16:13;;;;;;;11.25;7.95;;;;;;;5.06;84.01;101437.72;5053347;28;20033;-68
2020/12/20 07:18:58;;;;;;;10.80;6.60;;;;;;;5.12;84.22;101438.25;5070064;28;20043;-68
2020/12/20 07:21:24;;;;;;;13.27;7.60;;;;;;;5.18;83.81;101441.31;5070904;28;20370;-68
2020/12/20 07:23:52;;;;;;;9.52;6.70;;;;;;;5.18;83.73;101443.09;5070071;28;20036;-68
2020/12/20 07:26:18;;;;;;;10.98;7.18;;;;;;;5.16;83.85;101439.72;5070613;28;20070;-68
2020/12/20 07:28:43;;;;;;;13.38;7.50;;;;;;;5.13;83.98;101443.44;5069883;28;20116;-68
2020/12/20 07:31:20;;;;;;;12.50;7.37;;;;;;;5.23;83.59;101452.41;5070061;28;20083;-68
2020/12/20 07:33:46;;;;;;;12.35;8.25;;;;;;;5.17;83.72;101450.19;5070840;28;20532;-68
2020/12/20 07:36:12;;;;;;;;;;;;;;;5.13;83.83;101458.44;5070019;28;20119;-68
2020/12/20 07:38:38;;;;;;;;;;;;;;;5.14;83.79;101458.34;5071473;28;20030;-68
2020/12/20 07:41:10;;;;;;;12.55;6.72;;;;;;;5.07;83.94;101457.94;5070869;28;20352;-68
2020/12/20 07:43:36;;;;;;;10.52;7.60;;;;;;;4.98;84.29;101463.88;5071248;28;20043;-68
2020/12/20 07:46:04;;;;;;;13.43;7.15;;;;;;;4.99;84.24;101460.31;5069973;28;20028;-68
2020/12/20 07:48:29;;;;;;;11.68;7.45;;;;;;;5.00;84.29;101455.84;5070386;28;20036;-68
2020/12/20 07:51:10;;;;;;;11.07;7.17;;;;;;;4.97;84.16;101462.22;5069923;28;20455;-68
2020/12/20 07:53:49;;;;;;;12.10;8.45;;;;;;;4.99;83.89;101459.47;5069797;28;20055;-68
2020/12/20 07:56:25;;;;;;;13.35;7.40;;;;;;;4.98;84.33;101466.53;5070245;28;20072;-68
2020/12/20 07:58:53;;;;;;;12.85;7.30;;;;;;;5.00;84.12;101456.69;5070716;28;20043;-68
2020/12/20 08:01:18;;;;;;;11.40;7.30;;;;;;;4.96;84.12;101454.38;5069494;28;20066;-68
2020/12/20 08:03:44;;;;;;;13.60;7.67;;;;;;;4.94;84.33;101457.13;5069516;28;20075;-68
2020/12/20 08:06:11;;;;;;;12.13;7.38;;;;;;;4.99;84.19;101468.25;5069514;28;20131;-68
2020/12/20 08:08:44;;;;;;;14.15;7.43;;;;;;;5.02;84.07;101459.22;5069803;28;20537;-68
2020/12/20 08:11:26;;;;;;;14.75;8.18;;;;;;;5.01;84.20;101453.09;5070543;28;20083;-68
2020/12/20 08:13:57;;;;;;;13.18;6.85;;;;;;;5.00;84.13;101451.41;5069861;28;20079;-68
2020/12/20 08:16:26;;;;;;;12.85;8.63;;;;;;;5.00;84.27;101456.69;5070404;28;20063;-68
2020/12/20 08:18:57;;;;;;;14.70;8.65;;;;;;;4.94;84.43;101457.13;5072707;28;20028;-68
2020/12/20 08:21:30;;;;;;;11.63;6.90;;;;;;;4.97;84.50;101464.84;5073336;28;20339;-68
2020/12/20 08:23:58;;;;;;;10.70;7.32;;;;;;;5.02;84.33;101464.53;5074376;28;20098;-68
2020/12/20 08:26:33;;;;;;;12.50;7.70;;;;;;;4.99;84.39;101470.88;5073218;28;20521;-68
2020/12/20 08:29:00;;;;;;;12.85;8.02;;;;;;;4.98;84.22;101479.75;5073418;28;20040;-68
2020/12/20 08:31:30;;;;;;;13.73;7.65;;;;;;;4.98;84.42;101487.69;5074288;28;20036;-68
2020/12/20 08:33:57;;;;;;;13.32;7.32;;;;;;;5.05;84.05;101496.06;5073205;28;20040;-68
2020/12/20 08:36:22;;;;;;;;;;;;;;;5.06;84.04;101481.88;5072161;28;20523;-68
2020/12/20 08:38:48;;;;;;;;;;;;;;;5.02;84.05;101486.53;5070630;28;19913;-68
2020/12/20 08:41:24;;;;;;;10.53;6.43;;;;;;;5.04;84.16;101491.72;5071098;28;19960;-69
2020/12/20 08:44:02;;;;;;;10.88;7.63;;;;;;;5.08;83.86;101483.47;5071066;28;20529;-68
2020/12/20 08:46:28;;;;;;;11.65;7.63;;;;;;;5.15;83.86;101472.44;5069761;28;20033;-68
2020/12/20 08:49:10;;;;;;;12.50;7.45;;;;;;;5.15;83.64;101475.06;5070042;28;20516;-68
2020/12/20 08:51:35;;;;;;;13.75;7.88;;;;;;;5.21;83.53;101466.72;5072729;28;20039;-68
2020/12/20 08:54:00;;;;;;;10.70;7.13;;;;;;;5.20;83.58;101465.88;5073109;28;20397;-68
2020/12/20 08:56:26;;;;;;;9.63;6.17;;;;;;;5.26;83.52;101480.44;5073628;28;20359;-68
2020/12/20 08:58:51;;;;;;;9.87;7.53;;;;;;;5.26;83.38;101481.28;5073978;28;20369;-68
2020/12/20 09:01:16;;;;;;;13.10;8.47;;;;;;;5.24;83.26;101479.72;5072730;28;20514;-68
2020/12/20 09:03:41;;;;;;;12.40;7.90;;;;;;;5.21;83.60;101486.06;5073744;28;20135;-68
2020/12/20 09:06:14;;;;;;;10.47;6.93;;;;;;;5.26;83.72;101491.03;5072403;28;20135;-68
2020/12/20 09:08:39;;;;;;;11.10;7.70;;;;;;;5.32;83.15;101495.06;5073584;28;20071;-68
2020/12/20 09:11:04;;;;;;;13.50;8.40;;;;;;;5.45;82.96;101499.34;5072785;28;20079;-68
2020/12/20 09:13:30;;;;;;;11.70;7.47;;;;;;;5.49;82.90;101494.69;5072623;28;20674;-68
2020/12/20 09:15:55;;;;;;;10.30;7.27;;;;;;;5.63;82.15;101498.97;5072252;28;20029;-68
2020/12/20 09:18:24;;;;;;;14.13;7.70;;;;;;;5.71;82.14;101501.91;5073456;28;20036;-68
2020/12/20 09:20:49;;;;;;;10.70;6.93;;;;;;;5.85;81.38;101501.75;5073475;28;20068;-68
2020/12/20 09:23:22;;;;;;;12.48;7.75;;;;;;;5.71;81.87;101488.66;5073285;28;20419;-68
2020/12/20 09:25:48;;;;;;;12.07;7.03;;;;;;;5.68;81.95;101483.59;5072940;28;20351;-68
2020/12/20 09:28:21;;;;;;;11.00;7.15;;;;;;;5.71;82.13;101483.34;5072900;28;20036;-68
2020/12/20 09:30:48;;;;;;;12.20;7.60;;;;;;;5.74;81.83;101487.63;5070553;28;20335;-68
2020/12/20 09:33:26;;;;;;;14.45;8.10;;;;;;;5.71;81.99;101483.34;5072216;28;20051;-68
2020/12/20 09:35:53;;;;;;;13.80;8.00;;;;;;;5.71;81.82;101480.72;5072968;28;20136;-68
2020/12/20 09:38:19;;;;;;;9.40;7.35;;;;;;;5.74;81.77;101474.38;5072008;28;20036;-68
2020/12/20 09:40:44;;;;;;;11.20;8.13;;;;;;;5.70;82.09;101477.22;5073010;28;20095;-68
2020/12/20 09:43:17;;;;;;;11.07;7.10;;;;;;;5.67;82.43;101476.63;5072029;28;20113;-68
2020/12/20 09:45:43;;;;;;;14.38;7.90;;;;;;;5.79;82.05;101478.34;5072659;28;20037;-68
2020/12/20 09:48:08;;;;;;;10.87;7.63;;;;;;;5.80;82.03;101482.69;5071881;28;20056;-68
2020/12/20 09:50:33;;;;;;;12.57;7.37;;;;;;;5.85;81.91;101485.84;5072903;28;20071;-68
2020/12/20 09:52:58;;;;;;;9.97;7.57;;;;;;;5.85;81.68;101485.84;5071904;28;20040;-68
2020/12/20 09:55:24;;;;;;;9.37;7.07;;;;;;;5.84;81.58;101484.16;5072671;28;20044;-68
2020/12/20 09:57:49;;;;;;;11.53;6.80;;;;;;;5.90;81.49;101483.72;5072428;28;20029;-68
2020/12/20 10:00:14;;;;;;;17.00;8.37;;;;;;;5.96;81.58;101493.03;5072656;28;20097;-68
2020/12/20 10:02:40;;;;;;;10.63;8.93;;;;;;;5.96;81.91;101481.59;5072054;28;20037;-68
2020/12/20 10:05:05;;;;;;;9.10;6.67;;;;;;;6.05;81.69;101488.84;5072108;28;20150;-68
2020/12/20 10:07:30;;;;;;;12.80;7.70;;;;;;;5.99;81.42;101481.34;5070231;28;20063;-68
2020/12/20 10:09:56;;;;;;;12.43;6.63;;;;;;;5.95;81.61;101483.41;5071825;28;20409;-68
2020/12/20 10:12:21;;;;;;;10.57;7.57;;;;;;;5.89;81.65;101483.81;5071197;28;20465;-68
2020/12/20 10:14:46;;;;;;;13.80;7.30;;;;;;;5.97;81.48;101481.47;5071565;28;20488;-68
2020/12/20 10:17:12;;;;;;;15.07;7.07;;;;;;;5.91;81.73;101485.38;5070048;28;20028;-68
2020/12/20 10:19:37;;;;;;;13.37;7.03;;;;;;;5.90;81.83;101483.72;5071347;28;20051;-68
2020/12/20 10:22:02;;;;;;;12.90;8.60;;;;;;;5.92;82.01;101478.28;5071352;28;20117;-68
2020/12/20 10:24:27;;;;;;;14.07;7.07;;;;;;;5.98;81.63;101488.47;5071281;28;20071;-68
2020/12/20 10:26:53;;;;;;;22.80;8.87;;;;;;;5.93;81.50;101472.03;5069975;28;20102;-68
2020/12/20 10:29:18;;;;;;;12.13;7.60;;;;;;;5.91;82.20;101464.19;5071254;28;20334;-68
2020/12/20 10:31:45;;;;;;;13.80;9.97;;;;;;;5.83;82.69;101465.69;5070402;28;20052;-68
2020/12/20 10:34:10;;;;;;;12.32;7.57;;;;;;;5.91;82.32;101464.19;5071538;28;20047;-68
2020/12/20 10:36:36;;;;;;;17.20;8.57;;;;;;;5.96;81.78;101465.69;5070611;28;20032;-68
2020/12/20 10:39:03;;;;;;;13.63;9.32;;;;;;;6.01;81.75;101456.41;5070182;28;20458;-68
2020/12/20 10:41:55;;;;;;;11.18;8.10;;;;;;;6.01;81.83;101460.88;5071402;28;20028;-68
2020/12/20 10:44:22;;;;;;;13.05;9.35;;;;;;;6.04;81.80;101457.97;5070437;28;20053;-68
2020/12/20 10:46:50;;;;;;;12.32;8.48;;;;;;;6.09;81.73;101456.69;5070225;28;20040;-68
2020/12/20 10:49:15;;;;;;;10.10;7.63;;;;;;;6.10;81.48;101462.84;5053966;28;20054;-68
2020/12/20 10:51:41;;;;;;;13.73;7.85;;;;;;;6.21;81.58;101456.72;5070459;28;20127;-68
2020/12/20 10:54:06;;;;;;;13.80;7.83;;;;;;;6.24;81.30;101454.66;5053882;28;20036;-68
2020/12/20 10:56:31;;;;;;;10.93;6.93;;;;;;;6.20;80.83;101445.25;5070232;28;20029;-68
2020/12/20 10:58:56;;;;;;;13.53;7.07;;;;;;;6.32;80.96;101452.28;5071457;28;20048;-68
2020/12/20 11:01:22;;;;;;;12.70;8.73;;;;;;;6.31;81.05;101447.94;5071485;28;20040;-68
2020/12/20 11:03:48;;;;;;;16.53;7.17;;;;;;;6.31;80.74;101447.94;5070391;28;20051;-68
2020/12/20 11:06:21;;;;;;;11.93;7.18;;;;;;;6.38;80.68;101444.81;5069334;28;20036;-68
2020/12/20 11:08:47;;;;;;;15.77;8.10;;;;;;;6.29;80.97;101446.38;5069391;28;20043;-68
2020/12/20 11:11:14;;;;;;;12.32;8.38;;;;;;;6.33;81.02;101443.38;5053261;28;20044;-68
2020/12/20 11:13:42;;;;;;;19.58;8.10;;;;;;;6.46;80.44;101437.09;5071123;28;20622;-68
2020/12/20 11:16:17;;;;;;;12.70;8.00;;;;;;;6.46;80.56;101431.78;5070683;28;20036;-68
2020/12/20 11:18:45;;;;;;;10.05;7.35;;;;;;;6.59;80.44;101437.00;5070841;28;20079;-68
2020/12/20 11:21:15;;;;;;;11.32;8.27;;;;;;;6.63;79.98;101439.31;5070038;28;20032;-68
2020/12/20 11:23:41;;;;;;;15.75;7.93;;;;;;;6.56;80.17;101432.78;5070167;28;20072;-68
2020/12/20 11:26:14;;;;;;;11.50;7.90;;;;;;;6.69;80.25;101430.00;5070582;28;20079;-68
2020/12/20 11:28:42;;;;;;;17.15;7.88;;;;;;;6.59;80.33;101429.88;5070758;28;20048;-68
2020/12/20 11:31:12;;;;;;;11.82;8.50;;;;;;;6.69;79.79;101430.84;5069821;28;20028;-68
2020/12/20 11:33:38;;;;;;;10.85;7.60;;;;;;;6.74;79.92;101436.66;5070960;28;20076;-68
2020/12/20 11:36:05;;;;;;;13.05;8.23;;;;;;;6.81;79.35;101431.69;5069638;28;20083;-68